Terminal Aerodrome Forecast
Issued by NWS

Home | Current Version | Previous Version | Text Only | Print | Product List | Glossary On
Versions: 1 2 3 4 5 6 7 8 9 10 11 12 13 14 15 16 17 18 19 20 21 22 23 24 25 26 27 28 29 30 31 32 33 34 35 36 37 38 39 40 41 42 43 44 45 46 47 48 49 50
000
FTUS46 KEKA 291751
TAFACV
TAF
KACV 291751Z 2918/3018 19009KT P6SM FEW025
     FM291900 23013KT P6SM FEW025 SCT035
     FM300200 VRB04KT 6SM BR FEW005 SCT020
     FM300600 16005KT 6SM BR FEW005 BKN010
     FM300900 14005KT 3SM BR SCT004 OVC007
     FM301600 20008KT 4SM BR VCSH SCT004 BKN007 BKN012=

USA.gov is the U.S. government's official web portal to all federal, state and local government web resources and services.